Empire — PD5101 — position and weather

sailwx.info

Track history (hours):
 
Tides and Currents Weather Stations Pressure Air Temp Water Temp Dewpoint Dewpoint Depression Visibility Wind Speed Wind Dir Waves Ship Positions

Empire

Last reported at 2015-Jul-25 16:08 UTC. Time now 2015-Jul-28 19:46 UTC.
Position N 50°53' E 007°03'.

Length 183 m; draft 3 m.

Type: Ship. MMSI: 244670090.

Date/timePositionNaut miles runAvg speedWind from/ knotsBaromVisibWave heightAir tempDewpointWater temp
2015-Jul-25 16:08N 50°53' E 007°03'3 4.0
2015-Jul-25 15:29N 50°54' E 006°59'13 4.0
2015-Jul-25 12:11N 51°06' E 006°53'3 4.3
2015-Jul-25 11:31N 51°09' E 006°51'2 2.4
2015-Jul-25 10:33N 51°10' E 006°48'4 3.7
2015-Jul-25 09:33N 51°13' E 006°44'3 2.5
2015-Jul-25 08:33N 51°15' E 006°45'18 3.6
2015-Jul-25 03:29N 51°33' E 006°41'19 4.3
2015-Jul-24 23:04N 51°46' E 006°19'18 5.1
2015-Jul-24 19:30N 51°51' E 005°51'6 6.0
2015-Jul-24 18:33N 51°53' E 005°43'11 5.7
2015-Jul-24 16:33N 51°51' E 005°25'5 5.2
2015-Jul-24 15:33N 51°49' E 005°17'7 6.7
2015-Jul-24 14:33N 51°49' E 005°06'8 7.7
2015-Jul-24 13:33N 51°49' E 004°54'8 7.9
2015-Jul-24 12:34N 51°49' E 004°41'8 8.2
2015-Jul-24 11:33N 51°50' E 004°28'9 8.6
2015-Jul-24 10:33N 51°52' E 004°14'8 7.8
2015-Jul-24 09:33N 51°56' E 004°03'1 0.9
2015-Jul-24 08:33N 51°57' E 004°02'0 0.0
2015-Jul-24 07:33N 51°57' E 004°02'0 0.0
2015-Jul-24 06:33N 51°57' E 004°02'0 0.0
2015-Jul-24 05:33N 51°57' E 004°02'0 0.1
2015-Jul-24 04:33N 51°57' E 004°02'1 1.3
2015-Jul-24 03:33N 51°57' E 004°04'1 0.6
2015-Jul-24 02:33N 51°57' E 004°03'0 0.0
2015-Jul-24 01:33N 51°57' E 004°03'0 0.0
2015-Jul-24 00:34N 51°57' E 004°03'0 0.0
2015-Jul-23 23:33N 51°57' E 004°03'0 0.0
2015-Jul-23 22:33N 51°57' E 004°03'1 0.8
2015-Jul-23 21:33N 51°58' E 004°04'0 0.0
2015-Jul-23 20:33N 51°58' E 004°04'0 0.3
2015-Jul-23 19:33N 51°58' E 004°04'0 0.0
2015-Jul-23 18:33N 51°58' E 004°04'0 0.0
2015-Jul-23 17:33N 51°58' E 004°04'0 0.1
2015-Jul-23 16:33N 51°58' E 004°04'2 1.8
2015-Jul-23 15:33N 51°59' E 004°02'0 0.0
2015-Jul-23 14:33N 51°59' E 004°02'1 0.8
2015-Jul-23 13:33N 51°58' E 004°02'0 0.3
2015-Jul-23 12:33N 51°58' E 004°03'1 0.5
2015-Jul-23 11:33N 51°58' E 004°03'2 2.1
2015-Jul-23 10:33N 51°58' E 003°60'0 0.0
2015-Jul-23 09:33N 51°58' E 003°60'0 0.5
2015-Jul-23 08:33N 51°57' E 004°01'3 2.8
2015-Jul-23 07:33N 51°57' E 004°05'7 7.0
2015-Jul-23 06:33N 51°53' E 004°15'5 5.0
2015-Jul-23 05:33N 51°51' E 004°22'9 8.7
2015-Jul-23 04:33N 51°48' E 004°35'9 8.9
2015-Jul-23 03:33N 51°49' E 004°50'10 9.8
2015-Jul-23 02:33N 51°50' E 005°06'9 9.4
2015-Jul-23 01:33N 51°48' E 005°21'12 9.3
2015-Jul-23 00:17N 51°54' E 005°38'810.3
2015-Jul-22 23:31N 51°52' E 005°50'18 8.9
2015-Jul-22 21:28N 51°48' E 006°19'18 8.3
2015-Jul-22 19:21N 51°34' E 006°36'39 6.7
2015-Jul-22 13:32N 50°58' E 006°60'  
2015-Jul-19 14:31N 50°31' E 007°18'20 5.1
2015-Jul-19 10:31N 50°49' E 007°02'4 3.2
2015-Jul-19 09:19N 50°53' E 007°03'4 4.4
2015-Jul-19 08:31N 50°55' E 006°59'13 4.3
2015-Jul-19 05:34N 51°07' E 006°52'3 2.8
2015-Jul-19 04:33N 51°09' E 006°49'25 3.6
2015-Jul-18 21:32N 51°33' E 006°41'19 4.6
2015-Jul-18 17:27N 51°47' E 006°19'13 6.3
2015-Jul-18 15:19N 51°53' E 006°00'4 4.8
2015-Jul-18 14:31N 51°52' E 005°54'6 5.5
2015-Jul-18 13:28N 51°53' E 005°45'12 6.3
2015-Jul-18 11:33N 51°52' E 005°25'5 5.0
2015-Jul-18 10:33N 51°49' E 005°18'7 7.0
2015-Jul-18 09:32N 51°49' E 005°07'8 7.7
2015-Jul-18 08:33N 51°50' E 004°55'8 8.2
2015-Jul-18 07:34N 51°49' E 004°42'8 7.8
2015-Jul-18 06:33N 51°54' E 004°31'3 1.5
2015-Jul-18 04:14N 51°53' E 004°26'4 6.3
2015-Jul-18 03:33N 51°54' E 004°20'3 3.4
2015-Jul-18 02:33N 51°53' E 004°14'0 0.0
2015-Jul-18 01:33N 51°53' E 004°14'3 3.0
2015-Jul-18 00:33N 51°55' E 004°11'7 6.9
2015-Jul-17 23:33N 51°57' E 003°60'0 0.1
2015-Jul-17 22:33N 51°57' E 003°60'0 0.0
2015-Jul-17 21:33N 51°57' E 003°60'0 0.0
2015-Jul-17 20:33N 51°57' E 003°60'0 0.0
2015-Jul-17 19:33N 51°57' E 003°60'0 0.0
2015-Jul-17 18:33N 51°57' E 003°60'0 0.0
2015-Jul-17 17:33N 51°57' E 003°60'0 0.0
2015-Jul-17 16:33N 51°57' E 003°60'1 0.5
2015-Jul-17 15:33N 51°57' E 004°01'0 0.2
2015-Jul-17 14:33N 51°58' E 004°00'1 1.3
2015-Jul-17 13:33N 51°59' E 004°02'0 0.0
2015-Jul-17 12:33N 51°59' E 004°02'2 2.1
2015-Jul-17 11:33N 51°58' E 004°04'0 0.0
2015-Jul-17 10:33N 51°58' E 004°04'0 0.0
2015-Jul-17 09:33N 51°58' E 004°04'1 0.5
2015-Jul-17 08:33N 51°57' E 004°05'0 0.0
2015-Jul-17 07:33N 51°57' E 004°05'0 0.0
2015-Jul-17 06:33N 51°57' E 004°05'0 0.0
2015-Jul-17 05:33N 51°57' E 004°05'0 0.2
2015-Jul-17 04:33N 51°57' E 004°05'0 0.0
2015-Jul-17 03:33N 51°57' E 004°05'0 0.0
2015-Jul-17 02:33N 51°57' E 004°05'0 0.0
2015-Jul-17 01:33N 51°57' E 004°05'0 0.0
2015-Jul-17 00:33N 51°57' E 004°05'0 0.0
2015-Jul-16 23:33N 51°57' E 004°05'0 0.0
2015-Jul-16 22:33N 51°57' E 004°05'0 0.3
2015-Jul-16 21:33N 51°58' E 004°04'1 1.0
2015-Jul-16 20:33N 51°57' E 004°03'0 0.2
2015-Jul-16 19:33N 51°57' E 004°02'0 0.2
2015-Jul-16 18:33N 51°57' E 004°02'0 0.1
2015-Jul-16 17:33N 51°57' E 004°02'0 0.5
2015-Jul-16 16:33N 51°58' E 004°03'5 5.3
2015-Jul-16 15:33N 51°57' E 004°12'6 6.3
2015-Jul-16 14:33N 51°54' E 004°21'3 2.8
2015-Jul-16 13:33N 51°53' E 004°25'0 0.0
2015-Jul-16 12:33N 51°53' E 004°25'0 0.0
2015-Jul-16 11:33N 51°53' E 004°25'4 3.8
2015-Jul-16 10:33N 51°55' E 004°30'4 3.9
2015-Jul-16 09:33N 51°54' E 004°36'8 7.7
2015-Jul-16 08:33N 51°49' E 004°46'10 9.8
2015-Jul-16 07:33N 51°49' E 005°02'10 9.6
2015-Jul-16 06:29N 51°49' E 005°18'17 8.6
2015-Jul-16 04:33N 51°53' E 005°44'9 8.6
2015-Jul-16 03:31N 51°51' E 005°59'8 8.8
2015-Jul-16 02:33N 51°50' E 006°12'37 7.1
2015-Jul-15 21:23N 51°19' E 006°44'5 6.4
2015-Jul-15 20:33N 51°14' E 006°44'5 5.2
2015-Jul-15 19:32N 51°10' E 006°50'10 7.7
2015-Jul-15 18:12N 51°01' E 006°58'5 7.9
2015-Jul-15 17:30N 50°55' E 006°58'  
Track history (hours):
 
Tides and Currents Weather Stations Pressure Air Temp Water Temp Dewpoint Dewpoint Depression Visibility Wind Speed Wind Dir Waves Ship Positions

Empire

Last reported at 2015-Jul-25 16:08 UTC. Time now 2015-Jul-28 19:46 UTC.
Position N 50°53' E 007°03'.

Length 183 m; draft 3 m.

Type: Ship. MMSI: 244670090.

Date/timePositionNaut miles runAvg speedWind from/ knotsBaromVisibWave heightAir tempDewpointWater temp
2015-Jul-25 16:08N 50°53' E 007°03'3 4.0
2015-Jul-25 15:29N 50°54' E 006°59'13 4.0
2015-Jul-25 12:11N 51°06' E 006°53'3 4.3
2015-Jul-25 11:31N 51°09' E 006°51'2 2.4
2015-Jul-25 10:33N 51°10' E 006°48'4 3.7
2015-Jul-25 09:33N 51°13' E 006°44'3 2.5
2015-Jul-25 08:33N 51°15' E 006°45'18 3.6
2015-Jul-25 03:29N 51°33' E 006°41'19 4.3
2015-Jul-24 23:04N 51°46' E 006°19'18 5.1
2015-Jul-24 19:30N 51°51' E 005°51'6 6.0
2015-Jul-24 18:33N 51°53' E 005°43'11 5.7
2015-Jul-24 16:33N 51°51' E 005°25'5 5.2
2015-Jul-24 15:33N 51°49' E 005°17'7 6.7
2015-Jul-24 14:33N 51°49' E 005°06'8 7.7
2015-Jul-24 13:33N 51°49' E 004°54'8 7.9
2015-Jul-24 12:34N 51°49' E 004°41'8 8.2
2015-Jul-24 11:33N 51°50' E 004°28'9 8.6
2015-Jul-24 10:33N 51°52' E 004°14'8 7.8
2015-Jul-24 09:33N 51°56' E 004°03'1 0.9
2015-Jul-24 08:33N 51°57' E 004°02'0 0.0
2015-Jul-24 07:33N 51°57' E 004°02'0 0.0
2015-Jul-24 06:33N 51°57' E 004°02'0 0.0
2015-Jul-24 05:33N 51°57' E 004°02'0 0.1
2015-Jul-24 04:33N 51°57' E 004°02'1 1.3
2015-Jul-24 03:33N 51°57' E 004°04'1 0.6
2015-Jul-24 02:33N 51°57' E 004°03'0 0.0
2015-Jul-24 01:33N 51°57' E 004°03'0 0.0
2015-Jul-24 00:34N 51°57' E 004°03'0 0.0
2015-Jul-23 23:33N 51°57' E 004°03'0 0.0
2015-Jul-23 22:33N 51°57' E 004°03'1 0.8
2015-Jul-23 21:33N 51°58' E 004°04'0 0.0
2015-Jul-23 20:33N 51°58' E 004°04'0 0.3
2015-Jul-23 19:33N 51°58' E 004°04'0 0.0
2015-Jul-23 18:33N 51°58' E 004°04'0 0.0
2015-Jul-23 17:33N 51°58' E 004°04'0 0.1
2015-Jul-23 16:33N 51°58' E 004°04'2 1.8
2015-Jul-23 15:33N 51°59' E 004°02'0 0.0
2015-Jul-23 14:33N 51°59' E 004°02'1 0.8
2015-Jul-23 13:33N 51°58' E 004°02'0 0.3
2015-Jul-23 12:33N 51°58' E 004°03'1 0.5
2015-Jul-23 11:33N 51°58' E 004°03'2 2.1
2015-Jul-23 10:33N 51°58' E 003°60'0 0.0
2015-Jul-23 09:33N 51°58' E 003°60'0 0.5
2015-Jul-23 08:33N 51°57' E 004°01'3 2.8
2015-Jul-23 07:33N 51°57' E 004°05'7 7.0
2015-Jul-23 06:33N 51°53' E 004°15'5 5.0
2015-Jul-23 05:33N 51°51' E 004°22'9 8.7
2015-Jul-23 04:33N 51°48' E 004°35'9 8.9
2015-Jul-23 03:33N 51°49' E 004°50'10 9.8
2015-Jul-23 02:33N 51°50' E 005°06'9 9.4
2015-Jul-23 01:33N 51°48' E 005°21'12 9.3
2015-Jul-23 00:17N 51°54' E 005°38'810.3
2015-Jul-22 23:31N 51°52' E 005°50'18 8.9
2015-Jul-22 21:28N 51°48' E 006°19'18 8.3
2015-Jul-22 19:21N 51°34' E 006°36'39 6.7
2015-Jul-22 13:32N 50°58' E 006°60'  
2015-Jul-19 14:31N 50°31' E 007°18'20 5.1
2015-Jul-19 10:31N 50°49' E 007°02'4 3.2
2015-Jul-19 09:19N 50°53' E 007°03'4 4.4
2015-Jul-19 08:31N 50°55' E 006°59'13 4.3
2015-Jul-19 05:34N 51°07' E 006°52'3 2.8
2015-Jul-19 04:33N 51°09' E 006°49'25 3.6
2015-Jul-18 21:32N 51°33' E 006°41'19 4.6
2015-Jul-18 17:27N 51°47' E 006°19'13 6.3
2015-Jul-18 15:19N 51°53' E 006°00'4 4.8
2015-Jul-18 14:31N 51°52' E 005°54'6 5.5
2015-Jul-18 13:28N 51°53' E 005°45'12 6.3
2015-Jul-18 11:33N 51°52' E 005°25'5 5.0
2015-Jul-18 10:33N 51°49' E 005°18'7 7.0
2015-Jul-18 09:32N 51°49' E 005°07'8 7.7
2015-Jul-18 08:33N 51°50' E 004°55'8 8.2
2015-Jul-18 07:34N 51°49' E 004°42'8 7.8
2015-Jul-18 06:33N 51°54' E 004°31'3 1.5
2015-Jul-18 04:14N 51°53' E 004°26'4 6.3
2015-Jul-18 03:33N 51°54' E 004°20'3 3.4
2015-Jul-18 02:33N 51°53' E 004°14'0 0.0
2015-Jul-18 01:33N 51°53' E 004°14'3 3.0
2015-Jul-18 00:33N 51°55' E 004°11'7 6.9
2015-Jul-17 23:33N 51°57' E 003°60'0 0.1
2015-Jul-17 22:33N 51°57' E 003°60'0 0.0
2015-Jul-17 21:33N 51°57' E 003°60'0 0.0
2015-Jul-17 20:33N 51°57' E 003°60'0 0.0
2015-Jul-17 19:33N 51°57' E 003°60'0 0.0
2015-Jul-17 18:33N 51°57' E 003°60'0 0.0
2015-Jul-17 17:33N 51°57' E 003°60'0 0.0
2015-Jul-17 16:33N 51°57' E 003°60'1 0.5
2015-Jul-17 15:33N 51°57' E 004°01'0 0.2
2015-Jul-17 14:33N 51°58' E 004°00'1 1.3
2015-Jul-17 13:33N 51°59' E 004°02'0 0.0
2015-Jul-17 12:33N 51°59' E 004°02'2 2.1
2015-Jul-17 11:33N 51°58' E 004°04'0 0.0
2015-Jul-17 10:33N 51°58' E 004°04'0 0.0
2015-Jul-17 09:33N 51°58' E 004°04'1 0.5
2015-Jul-17 08:33N 51°57' E 004°05'0 0.0
2015-Jul-17 07:33N 51°57' E 004°05'0 0.0
2015-Jul-17 06:33N 51°57' E 004°05'0 0.0
2015-Jul-17 05:33N 51°57' E 004°05'0 0.2
2015-Jul-17 04:33N 51°57' E 004°05'0 0.0
2015-Jul-17 03:33N 51°57' E 004°05'0 0.0
2015-Jul-17 02:33N 51°57' E 004°05'0 0.0
2015-Jul-17 01:33N 51°57' E 004°05'0 0.0
2015-Jul-17 00:33N 51°57' E 004°05'0 0.0
2015-Jul-16 23:33N 51°57' E 004°05'0 0.0
2015-Jul-16 22:33N 51°57' E 004°05'0 0.3
2015-Jul-16 21:33N 51°58' E 004°04'1 1.0
2015-Jul-16 20:33N 51°57' E 004°03'0 0.2
2015-Jul-16 19:33N 51°57' E 004°02'0 0.2
2015-Jul-16 18:33N 51°57' E 004°02'0 0.1
2015-Jul-16 17:33N 51°57' E 004°02'0 0.5
2015-Jul-16 16:33N 51°58' E 004°03'5 5.3
2015-Jul-16 15:33N 51°57' E 004°12'6 6.3
2015-Jul-16 14:33N 51°54' E 004°21'3 2.8
2015-Jul-16 13:33N 51°53' E 004°25'0 0.0
2015-Jul-16 12:33N 51°53' E 004°25'0 0.0
2015-Jul-16 11:33N 51°53' E 004°25'4 3.8
2015-Jul-16 10:33N 51°55' E 004°30'4 3.9
2015-Jul-16 09:33N 51°54' E 004°36'8 7.7
2015-Jul-16 08:33N 51°49' E 004°46'10 9.8
2015-Jul-16 07:33N 51°49' E 005°02'10 9.6
2015-Jul-16 06:29N 51°49' E 005°18'17 8.6
2015-Jul-16 04:33N 51°53' E 005°44'9 8.6
2015-Jul-16 03:31N 51°51' E 005°59'8 8.8
2015-Jul-16 02:33N 51°50' E 006°12'37 7.1
2015-Jul-15 21:23N 51°19' E 006°44'5 6.4
2015-Jul-15 20:33N 51°14' E 006°44'5 5.2
2015-Jul-15 19:32N 51°10' E 006°50'10 7.7
2015-Jul-15 18:12N 51°01' E 006°58'5 7.9
2015-Jul-15 17:30N 50°55' E 006°58'  

Dump ship's entire track history